sensor_id;sensor_type;location;lat;lon;timestamp;pressure;altitude;pressure_sealevel;temperature;humidity
11413;BME280;5762;43.256;26.960;2023-02-11T00:01:10;101616.03;;;-7.11;100.00
11413;BME280;5762;43.256;26.960;2023-02-11T00:03:38;101626.57;;;-7.01;100.00
11413;BME280;5762;43.256;26.960;2023-02-11T00:06:07;101623.91;;;-7.20;100.00
11413;BME280;5762;43.256;26.960;2023-02-11T00:08:36;101614.78;;;-7.16;100.00
11413;BME280;5762;43.256;26.960;2023-02-11T00:11:06;101611.94;;;-7.19;100.00
11413;BME280;5762;43.256;26.960;2023-02-11T00:13:34;101614.43;;;-7.17;100.00
11413;BME280;5762;43.256;26.960;2023-02-11T00:16:07;101607.84;;;-7.36;100.00
11413;BME280;5762;43.256;26.960;2023-02-11T00:18:36;101602.53;;;-7.56;100.00
11413;BME280;5762;43.256;26.960;2023-02-11T00:21:06;101606.91;;;-7.51;100.00
11413;BME280;5762;43.256;26.960;2023-02-11T00:23:35;101595.87;;;-7.69;100.00
11413;BME280;5762;43.256;26.960;2023-02-11T00:26:10;101605.29;;;-7.67;100.00
11413;BME280;5762;43.256;26.960;2023-02-11T00:28:33;101597.05;;;-7.68;100.00
11413;BME280;5762;43.256;26.960;2023-02-11T00:31:02;101590.62;;;-7.60;100.00
11413;BME280;5762;43.256;26.960;2023-02-11T00:33:31;101594.11;;;-7.50;100.00
11413;BME280;5762;43.256;26.960;2023-02-11T00:36:04;101601.48;;;-7.59;100.00
11413;BME280;5762;43.256;26.960;2023-02-11T00:38:33;101589.45;;;-7.86;100.00
11413;BME280;5762;43.256;26.960;2023-02-11T00:41:02;101595.31;;;-7.88;100.00
11413;BME280;5762;43.256;26.960;2023-02-11T00:43:31;101596.76;;;-7.90;100.00
11413;BME280;5762;43.256;26.960;2023-02-11T00:45:59;101596.31;;;-8.04;100.00
11413;BME280;5762;43.256;26.960;2023-02-11T00:48:28;101592.70;;;-8.19;100.00
11413;BME280;5762;43.256;26.960;2023-02-11T00:50:57;101583.50;;;-8.43;100.00
11413;BME280;5762;43.256;26.960;2023-02-11T00:53:25;101588.98;;;-8.41;100.00
11413;BME280;5762;43.256;26.960;2023-02-11T00:55:54;101594.48;;;-8.44;100.00
11413;BME280;5762;43.256;26.960;2023-02-11T00:58:23;101584.81;;;-8.43;100.00
11413;BME280;5762;43.256;26.960;2023-02-11T01:00:53;101579.48;;;-8.23;100.00
11413;BME280;5762;43.256;26.960;2023-02-11T01:03:22;101569.73;;;-8.36;100.00
11413;BME280;5762;43.256;26.960;2023-02-11T01:05:51;101578.60;;;-8.42;100.00
11413;BME280;5762;43.256;26.960;2023-02-11T01:08:20;101583.15;;;-8.44;100.00
11413;BME280;5762;43.256;26.960;2023-02-11T01:11:04;101580.62;;;-8.40;100.00
11413;BME280;5762;43.256;26.960;2023-02-11T01:13:29;101581.27;;;-8.48;100.00
11413;BME280;5762;43.256;26.960;2023-02-11T01:15:57;101581.03;;;-8.51;100.00
11413;BME280;5762;43.256;26.960;2023-02-11T01:18:26;101580.44;;;-8.49;100.00
11413;BME280;5762;43.256;26.960;2023-02-11T01:20:55;101589.49;;;-8.47;100.00
11413;BME280;5762;43.256;26.960;2023-02-11T01:23:24;101584.30;;;-8.58;100.00
11413;BME280;5762;43.256;26.960;2023-02-11T01:25:53;101577.04;;;-8.60;100.00
11413;BME280;5762;43.256;26.960;2023-02-11T01:28:26;101576.30;;;-8.57;100.00
11413;BME280;5762;43.256;26.960;2023-02-11T01:30:54;101572.39;;;-8.41;100.00
11413;BME280;5762;43.256;26.960;2023-02-11T01:33:24;101569.50;;;-8.29;100.00
11413;BME280;5762;43.256;26.960;2023-02-11T01:35:52;101566.80;;;-8.18;100.00
11413;BME280;5762;43.256;26.960;2023-02-11T01:38:24;101568.81;;;-8.16;100.00
11413;BME280;5762;43.256;26.960;2023-02-11T01:40:54;101564.82;;;-8.25;100.00
11413;BME280;5762;43.256;26.960;2023-02-11T01:43:23;101562.23;;;-8.31;100.00
11413;BME280;5762;43.256;26.960;2023-02-11T01:48:37;101563.30;;;-8.58;100.00
11413;BME280;5762;43.256;26.960;2023-02-11T01:51:11;101557.98;;;-8.83;100.00
11413;BME280;5762;43.256;26.960;2023-02-11T01:53:36;101558.50;;;-8.68;100.00
11413;BME280;5762;43.256;26.960;2023-02-11T01:56:22;101557.35;;;-8.60;100.00
11413;BME280;5762;43.256;26.960;2023-02-11T01:59:11;101561.73;;;-8.55;100.00
11413;BME280;5762;43.256;26.960;2023-02-11T02:01:37;101559.27;;;-8.62;100.00
11413;BME280;5762;43.256;26.960;2023-02-11T02:04:07;101556.17;;;-8.62;100.00
11413;BME280;5762;43.256;26.960;2023-02-11T02:06:39;101560.23;;;-8.63;100.00
11413;BME280;5762;43.256;26.960;2023-02-11T02:09:10;101559.63;;;-8.61;100.00
11413;BME280;5762;43.256;26.960;2023-02-11T02:11:38;101566.63;;;-8.56;100.00
11413;BME280;5762;43.256;26.960;2023-02-11T02:14:07;101570.19;;;-8.52;100.00
11413;BME280;5762;43.256;26.960;2023-02-11T02:16:36;101568.30;;;-8.55;100.00
11413;BME280;5762;43.256;26.960;2023-02-11T02:22:11;101564.62;;;-8.58;100.00
11413;BME280;5762;43.256;26.960;2023-02-11T02:33:05;101576.17;;;-8.55;100.00
11413;BME280;5762;43.256;26.960;2023-02-11T02:35:10;101564.04;;;-8.62;100.00
11413;BME280;5762;43.256;26.960;2023-02-11T02:40:09;101572.55;;;-8.49;100.00
11413;BME280;5762;43.256;26.960;2023-02-11T02:42:37;101576.23;;;-8.46;100.00
11413;BME280;5762;43.256;26.960;2023-02-11T02:45:07;101578.19;;;-8.53;100.00
11413;BME280;5762;43.256;26.960;2023-02-11T02:47:37;101581.16;;;-8.52;100.00
11413;BME280;5762;43.256;26.960;2023-02-11T02:50:05;101579.15;;;-8.54;100.00
11413;BME280;5762;43.256;26.960;2023-02-11T02:52:49;101580.14;;;-8.61;100.00
11413;BME280;5762;43.256;26.960;2023-02-11T02:55:11;101578.92;;;-8.72;100.00
11413;BME280;5762;43.256;26.960;2023-02-11T02:57:42;101571.63;;;-8.68;100.00
11413;BME280;5762;43.256;26.960;2023-02-11T03:00:11;101576.65;;;-8.71;100.00
11413;BME280;5762;43.256;26.960;2023-02-11T03:05:15;101573.45;;;-8.74;100.00
11413;BME280;5762;43.256;26.960;2023-02-11T03:10:18;101572.66;;;-8.86;100.00
11413;BME280;5762;43.256;26.960;2023-02-11T03:12:46;101569.81;;;-8.89;100.00
11413;BME280;5762;43.256;26.960;2023-02-11T03:15:16;101569.03;;;-9.00;100.00
11413;BME280;5762;43.256;26.960;2023-02-11T03:17:46;101576.70;;;-9.03;100.00
11413;BME280;5762;43.256;26.960;2023-02-11T03:20:15;101574.08;;;-9.03;100.00
11413;BME280;5762;43.256;26.960;2023-02-11T03:22:49;101575.39;;;-9.03;100.00
11413;BME280;5762;43.256;26.960;2023-02-11T03:25:17;101574.43;;;-9.02;100.00
11413;BME280;5762;43.256;26.960;2023-02-11T03:27:51;101570.44;;;-8.96;100.00
11413;BME280;5762;43.256;26.960;2023-02-11T03:30:20;101573.75;;;-8.89;100.00
11413;BME280;5762;43.256;26.960;2023-02-11T03:32:50;101586.66;;;-8.97;100.00
11413;BME280;5762;43.256;26.960;2023-02-11T03:37:52;101579.48;;;-8.89;100.00
11413;BME280;5762;43.256;26.960;2023-02-11T03:40:24;101573.05;;;-8.91;100.00
11413;BME280;5762;43.256;26.960;2023-02-11T03:42:53;101574.56;;;-8.83;100.00
11413;BME280;5762;43.256;26.960;2023-02-11T03:45:21;101567.47;;;-8.71;100.00
11413;BME280;5762;43.256;26.960;2023-02-11T03:47:59;101569.42;;;-8.63;100.00
11413;BME280;5762;43.256;26.960;2023-02-11T03:50:26;101559.27;;;-8.62;100.00
11413;BME280;5762;43.256;26.960;2023-02-11T03:52:55;101565.48;;;-8.63;100.00
11413;BME280;5762;43.256;26.960;2023-02-11T03:55:25;101567.08;;;-8.66;100.00
11413;BME280;5762;43.256;26.960;2023-02-11T03:57:55;101564.45;;;-8.66;100.00
11413;BME280;5762;43.256;26.960;2023-02-11T04:00:31;101562.95;;;-8.74;100.00
11413;BME280;5762;43.256;26.960;2023-02-11T04:03:00;101558.48;;;-8.89;100.00
11413;BME280;5762;43.256;26.960;2023-02-11T04:05:29;101561.34;;;-8.87;100.00
11413;BME280;5762;43.256;26.960;2023-02-11T04:07:58;101558.64;;;-8.96;100.00
11413;BME280;5762;43.256;26.960;2023-02-11T04:10:27;101563.09;;;-9.34;100.00
11413;BME280;5762;43.256;26.960;2023-02-11T04:12:55;101566.00;;;-9.37;100.00
11413;BME280;5762;43.256;26.960;2023-02-11T04:15:24;101560.58;;;-9.30;100.00
11413;BME280;5762;43.256;26.960;2023-02-11T04:17:53;101553.27;;;-9.16;100.00
11413;BME280;5762;43.256;26.960;2023-02-11T04:20:22;101540.53;;;-8.99;100.00
11413;BME280;5762;43.256;26.960;2023-02-11T04:22:51;101541.84;;;-8.99;100.00
11413;BME280;5762;43.256;26.960;2023-02-11T04:25:19;101542.27;;;-8.89;100.00
11413;BME280;5762;43.256;26.960;2023-02-11T04:27:48;101543.95;;;-8.67;100.00
11413;BME280;5762;43.256;26.960;2023-02-11T04:30:17;101550.79;;;-8.60;100.00
11413;BME280;5762;43.256;26.960;2023-02-11T04:32:46;101540.35;;;-8.51;100.00
11413;BME280;5762;43.256;26.960;2023-02-11T04:35:15;101537.59;;;-8.49;100.00
11413;BME280;5762;43.256;26.960;2023-02-11T04:37:44;101541.50;;;-8.43;100.00
11413;BME280;5762;43.256;26.960;2023-02-11T04:40:13;101535.86;;;-8.39;100.00
11413;BME280;5762;43.256;26.960;2023-02-11T04:42:42;101540.45;;;-8.47;100.00
11413;BME280;5762;43.256;26.960;2023-02-11T04:45:11;101533.53;;;-8.48;100.00
11413;BME280;5762;43.256;26.960;2023-02-11T04:47:40;101526.27;;;-8.50;100.00
11413;BME280;5762;43.256;26.960;2023-02-11T04:50:09;101522.02;;;-8.56;100.00
11413;BME280;5762;43.256;26.960;2023-02-11T04:52:37;101531.14;;;-8.66;100.00
11413;BME280;5762;43.256;26.960;2023-02-11T04:55:05;101528.64;;;-8.83;100.00
11413;BME280;5762;43.256;26.960;2023-02-11T04:57:33;101529.13;;;-8.83;100.00
11413;BME280;5762;43.256;26.960;2023-02-11T05:00:02;101531.52;;;-8.86;100.00
11413;BME280;5762;43.256;26.960;2023-02-11T05:02:31;101531.72;;;-8.77;100.00
11413;BME280;5762;43.256;26.960;2023-02-11T05:05:00;101523.94;;;-8.94;100.00
11413;BME280;5762;43.256;26.960;2023-02-11T05:07:30;101533.67;;;-9.06;100.00
11413;BME280;5762;43.256;26.960;2023-02-11T05:09:59;101529.20;;;-9.00;100.00
11413;BME280;5762;43.256;26.960;2023-02-11T05:12:28;101526.08;;;-8.94;100.00
11413;BME280;5762;43.256;26.960;2023-02-11T05:14:57;101521.69;;;-8.99;100.00
11413;BME280;5762;43.256;26.960;2023-02-11T05:17:26;101518.32;;;-9.10;100.00
11413;BME280;5762;43.256;26.960;2023-02-11T05:19:54;101518.80;;;-9.11;100.00
11413;BME280;5762;43.256;26.960;2023-02-11T05:22:23;101517.72;;;-9.08;100.00
11413;BME280;5762;43.256;26.960;2023-02-11T05:24:51;101514.03;;;-9.11;100.00
11413;BME280;5762;43.256;26.960;2023-02-11T05:27:19;101515.80;;;-9.06;100.00
11413;BME280;5762;43.256;26.960;2023-02-11T05:29:48;101514.78;;;-9.00;100.00
11413;BME280;5762;43.256;26.960;2023-02-11T05:32:17;101514.56;;;-9.23;100.00
11413;BME280;5762;43.256;26.960;2023-02-11T05:34:45;101517.27;;;-9.40;100.00
11413;BME280;5762;43.256;26.960;2023-02-11T05:37:14;101515.19;;;-9.63;100.00
11413;BME280;5762;43.256;26.960;2023-02-11T05:39:44;101517.89;;;-9.48;100.00
11413;BME280;5762;43.256;26.960;2023-02-11T05:42:12;101521.58;;;-9.44;100.00
11413;BME280;5762;43.256;26.960;2023-02-11T05:44:40;101519.80;;;-9.23;100.00
11413;BME280;5762;43.256;26.960;2023-02-11T05:47:09;101523.47;;;-9.15;100.00
11413;BME280;5762;43.256;26.960;2023-02-11T05:49:38;101534.33;;;-9.19;100.00
11413;BME280;5762;43.256;26.960;2023-02-11T05:52:07;101531.70;;;-9.19;100.00
11413;BME280;5762;43.256;26.960;2023-02-11T05:54:36;101531.95;;;-9.22;100.00
11413;BME280;5762;43.256;26.960;2023-02-11T05:57:05;101542.56;;;-9.24;100.00
11413;BME280;5762;43.256;26.960;2023-02-11T05:59:33;101534.78;;;-9.14;100.00
11413;BME280;5762;43.256;26.960;2023-02-11T06:02:02;101528.58;;;-9.13;100.00
11413;BME280;5762;43.256;26.960;2023-02-11T06:04:31;101530.88;;;-8.99;100.00
11413;BME280;5762;43.256;26.960;2023-02-11T06:06:59;101530.91;;;-8.84;100.00
11413;BME280;5762;43.256;26.960;2023-02-11T06:09:28;101538.66;;;-8.82;100.00
11413;BME280;5762;43.256;26.960;2023-02-11T06:11:57;101534.21;;;-8.76;100.00
11413;BME280;5762;43.256;26.960;2023-02-11T06:14:26;101535.88;;;-8.75;100.00
11413;BME280;5762;43.256;26.960;2023-02-11T06:16:54;101535.75;;;-8.73;100.00
11413;BME280;5762;43.256;26.960;2023-02-11T06:19:23;101535.91;;;-8.65;100.00
11413;BME280;5762;43.256;26.960;2023-02-11T06:21:52;101538.56;;;-8.50;100.00
11413;BME280;5762;43.256;26.960;2023-02-11T06:24:21;101538.52;;;-8.44;100.00
11413;BME280;5762;43.256;26.960;2023-02-11T06:26:50;101540.54;;;-8.42;100.00
11413;BME280;5762;43.256;26.960;2023-02-11T06:29:19;101539.39;;;-8.25;100.00
11413;BME280;5762;43.256;26.960;2023-02-11T06:31:48;101536.77;;;-8.09;100.00
11413;BME280;5762;43.256;26.960;2023-02-11T06:34:16;101543.86;;;-8.16;100.00
11413;BME280;5762;43.256;26.960;2023-02-11T06:36:44;101546.48;;;-8.00;100.00
11413;BME280;5762;43.256;26.960;2023-02-11T06:39:13;101548.06;;;-7.94;100.00
11413;BME280;5762;43.256;26.960;2023-02-11T06:41:41;101549.33;;;-7.88;100.00
11413;BME280;5762;43.256;26.960;2023-02-11T06:44:10;101550.20;;;-7.78;100.00
11413;BME280;5762;43.256;26.960;2023-02-11T06:46:38;101549.48;;;-7.65;100.00
11413;BME280;5762;43.256;26.960;2023-02-11T06:49:07;101547.62;;;-7.39;100.00
11413;BME280;5762;43.256;26.960;2023-02-11T06:51:36;101562.92;;;-7.10;100.00
11413;BME280;5762;43.256;26.960;2023-02-11T06:54:05;101559.71;;;-6.75;100.00
11413;BME280;5762;43.256;26.960;2023-02-11T06:56:34;101555.19;;;-6.59;100.00
11413;BME280;5762;43.256;26.960;2023-02-11T06:59:03;101551.80;;;-6.42;100.00
11413;BME280;5762;43.256;26.960;2023-02-11T07:01:32;101546.59;;;-6.38;100.00
11413;BME280;5762;43.256;26.960;2023-02-11T07:04:01;101540.69;;;-6.22;100.00
11413;BME280;5762;43.256;26.960;2023-02-11T07:06:30;101536.94;;;-6.33;100.00
11413;BME280;5762;43.256;26.960;2023-02-11T07:08:59;101543.00;;;-6.10;100.00
11413;BME280;5762;43.256;26.960;2023-02-11T07:11:28;101535.36;;;-5.89;100.00
11413;BME280;5762;43.256;26.960;2023-02-11T07:14:01;101530.61;;;-5.82;100.00
11413;BME280;5762;43.256;26.960;2023-02-11T07:16:29;101530.03;;;-5.76;100.00
11413;BME280;5762;43.256;26.960;2023-02-11T07:18:58;101538.13;;;-5.73;100.00
11413;BME280;5762;43.256;26.960;2023-02-11T07:21:27;101537.05;;;-5.66;100.00
11413;BME280;5762;43.256;26.960;2023-02-11T07:23:56;101538.53;;;-5.50;100.00
11413;BME280;5762;43.256;26.960;2023-02-11T07:26:25;101541.05;;;-5.31;100.00
11413;BME280;5762;43.256;26.960;2023-02-11T07:28:54;101537.02;;;-5.21;100.00
11413;BME280;5762;43.256;26.960;2023-02-11T07:31:24;101532.52;;;-5.25;100.00
11413;BME280;5762;43.256;26.960;2023-02-11T07:33:53;101528.27;;;-5.00;100.00
11413;BME280;5762;43.256;26.960;2023-02-11T07:36:22;101534.00;;;-4.83;100.00
11413;BME280;5762;43.256;26.960;2023-02-11T07:38:51;101526.17;;;-4.70;100.00
11413;BME280;5762;43.256;26.960;2023-02-11T07:41:21;101520.85;;;-4.53;100.00
11413;BME280;5762;43.256;26.960;2023-02-11T07:43:50;101509.34;;;-4.40;100.00
11413;BME280;5762;43.256;26.960;2023-02-11T07:46:20;101510.89;;;-4.29;100.00
11413;BME280;5762;43.256;26.960;2023-02-11T07:48:50;101514.91;;;-4.21;100.00
11413;BME280;5762;43.256;26.960;2023-02-11T07:51:23;101518.91;;;-4.09;100.00
11413;BME280;5762;43.256;26.960;2023-02-11T07:53:48;101506.58;;;-3.92;100.00
11413;BME280;5762;43.256;26.960;2023-02-11T07:56:18;101501.99;;;-3.82;100.00
11413;BME280;5762;43.256;26.960;2023-02-11T07:58:47;101498.84;;;-3.85;100.00
11413;BME280;5762;43.256;26.960;2023-02-11T08:01:17;101497.85;;;-3.84;100.00
11413;BME280;5762;43.256;26.960;2023-02-11T08:03:45;101491.44;;;-3.61;100.00
11413;BME280;5762;43.256;26.960;2023-02-11T08:06:14;101484.52;;;-3.54;100.00
11413;BME280;5762;43.256;26.960;2023-02-11T08:08:43;101481.37;;;-3.38;100.00
11413;BME280;5762;43.256;26.960;2023-02-11T08:11:15;101485.67;;;-3.37;100.00
11413;BME280;5762;43.256;26.960;2023-02-11T08:13:44;101486.35;;;-3.26;100.00
11413;BME280;5762;43.256;26.960;2023-02-11T08:16:23;101481.37;;;-2.93;100.00
11413;BME280;5762;43.256;26.960;2023-02-11T08:18:52;101485.00;;;-2.78;100.00
11413;BME280;5762;43.256;26.960;2023-02-11T08:21:22;101476.00;;;-2.56;100.00
11413;BME280;5762;43.256;26.960;2023-02-11T08:23:51;101469.89;;;-2.65;100.00
11413;BME280;5762;43.256;26.960;2023-02-11T08:26:20;101471.67;;;-2.45;100.00
11413;BME280;5762;43.256;26.960;2023-02-11T08:28:49;101460.94;;;-2.13;100.00
11413;BME280;5762;43.256;26.960;2023-02-11T08:31:23;101460.81;;;-1.92;100.00
11413;BME280;5762;43.256;26.960;2023-02-11T08:33:47;101457.80;;;-1.85;100.00
11413;BME280;5762;43.256;26.960;2023-02-11T08:36:17;101454.95;;;-1.57;100.00
11413;BME280;5762;43.256;26.960;2023-02-11T08:38:46;101447.44;;;-1.30;100.00
11413;BME280;5762;43.256;26.960;2023-02-11T08:41:15;101445.23;;;-1.23;100.00
11413;BME280;5762;43.256;26.960;2023-02-11T08:43:45;101444.95;;;-1.09;100.00
11413;BME280;5762;43.256;26.960;2023-02-11T08:46:14;101442.77;;;-1.06;100.00
11413;BME280;5762;43.256;26.960;2023-02-11T08:48:43;101442.48;;;-0.96;100.00
11413;BME280;5762;43.256;26.960;2023-02-11T08:51:13;101433.34;;;-0.64;100.00
11413;BME280;5762;43.256;26.960;2023-02-11T08:53:41;101434.51;;;-0.22;100.00
11413;BME280;5762;43.256;26.960;2023-02-11T08:56:10;101436.97;;;-0.06;100.00
11413;BME280;5762;43.256;26.960;2023-02-11T08:58:39;101434.89;;;0.11;100.00
11413;BME280;5762;43.256;26.960;2023-02-11T09:01:09;101439.81;;;0.28;100.00
11413;BME280;5762;43.256;26.960;2023-02-11T09:03:38;101426.43;;;0.64;100.00
11413;BME280;5762;43.256;26.960;2023-02-11T09:06:08;101426.14;;;0.81;100.00
11413;BME280;5762;43.256;26.960;2023-02-11T09:08:37;101424.41;;;0.66;100.00
11413;BME280;5762;43.256;26.960;2023-02-11T09:11:07;101419.86;;;0.78;100.00
11413;BME280;5762;43.256;26.960;2023-02-11T09:13:39;101422.26;;;0.94;100.00
11413;BME280;5762;43.256;26.960;2023-02-11T09:16:07;101421.38;;;0.87;100.00
11413;BME280;5762;43.256;26.960;2023-02-11T09:18:37;101420.80;;;0.91;100.00
11413;BME280;5762;43.256;26.960;2023-02-11T09:21:06;101417.06;;;0.86;100.00
11413;BME280;5762;43.256;26.960;2023-02-11T09:23:35;101400.30;;;0.92;100.00
11413;BME280;5762;43.256;26.960;2023-02-11T09:26:07;101398.34;;;0.90;100.00
11413;BME280;5762;43.256;26.960;2023-02-11T09:28:35;101393.00;;;0.90;100.00
11413;BME280;5762;43.256;26.960;2023-02-11T09:31:05;101393.81;;;1.01;100.00
11413;BME280;5762;43.256;26.960;2023-02-11T09:33:33;101381.76;;;1.12;100.00
11413;BME280;5762;43.256;26.960;2023-02-11T09:36:02;101388.23;;;1.13;100.00
11413;BME280;5762;43.256;26.960;2023-02-11T09:38:31;101380.47;;;1.18;100.00
11413;BME280;5762;43.256;26.960;2023-02-11T09:41:00;101378.94;;;1.20;100.00
11413;BME280;5762;43.256;26.960;2023-02-11T09:43:32;101371.26;;;1.38;100.00
11413;BME280;5762;43.256;26.960;2023-02-11T09:45:59;101370.80;;;1.52;100.00
11413;BME280;5762;43.256;26.960;2023-02-11T09:48:29;101357.80;;;1.59;100.00
11413;BME280;5762;43.256;26.960;2023-02-11T09:50:59;101353.02;;;1.72;100.00
11413;BME280;5762;43.256;26.960;2023-02-11T09:53:29;101347.91;;;1.84;100.00
11413;BME280;5762;43.256;26.960;2023-02-11T09:55:58;101342.44;;;1.68;100.00
11413;BME280;5762;43.256;26.960;2023-02-11T09:58:34;101347.89;;;1.71;100.00
11413;BME280;5762;43.256;26.960;2023-02-11T10:01:20;101344.72;;;1.84;100.00
11413;BME280;5762;43.256;26.960;2023-02-11T10:06:33;101330.02;;;1.78;100.00
11413;BME280;5762;43.256;26.960;2023-02-11T10:11:45;101320.17;;;1.78;100.00
11413;BME280;5762;43.256;26.960;2023-02-11T10:14:14;101311.59;;;1.96;100.00
11413;BME280;5762;43.256;26.960;2023-02-11T10:16:49;101306.36;;;2.12;100.00
11413;BME280;5762;43.256;26.960;2023-02-11T10:19:18;101307.69;;;2.12;100.00
11413;BME280;5762;43.256;26.960;2023-02-11T10:21:51;101300.30;;;2.14;100.00
11413;BME280;5762;43.256;26.960;2023-02-11T10:24:19;101305.95;;;2.15;100.00
11413;BME280;5762;43.256;26.960;2023-02-11T10:26:49;101296.19;;;2.11;100.00
11413;BME280;5762;43.256;26.960;2023-02-11T10:32:14;101299.29;;;2.28;100.00
11413;BME280;5762;43.256;26.960;2023-02-11T10:34:38;101299.70;;;2.31;100.00
11413;BME280;5762;43.256;26.960;2023-02-11T10:37:07;101292.11;;;2.35;100.00
11413;BME280;5762;43.256;26.960;2023-02-11T10:39:36;101298.37;;;2.38;100.00
11413;BME280;5762;43.256;26.960;2023-02-11T10:42:06;101281.11;;;2.41;100.00
11413;BME280;5762;43.256;26.960;2023-02-11T10:45:09;101281.70;;;2.49;100.00
11413;BME280;5762;43.256;26.960;2023-02-11T10:47:20;101277.07;;;2.54;100.00
11413;BME280;5762;43.256;26.960;2023-02-11T10:49:45;101272.54;;;2.67;100.00
11413;BME280;5762;43.256;26.960;2023-02-11T10:54:54;101263.34;;;2.79;100.00
11413;BME280;5762;43.256;26.960;2023-02-11T10:57:16;101268.63;;;2.70;100.00
11413;BME280;5762;43.256;26.960;2023-02-11T10:59:40;101269.65;;;2.76;100.00
11413;BME280;5762;43.256;26.960;2023-02-11T11:04:54;101260.04;;;2.84;100.00
11413;BME280;5762;43.256;26.960;2023-02-11T11:07:22;101249.34;;;2.84;100.00
11413;BME280;5762;43.256;26.960;2023-02-11T11:09:57;101242.34;;;2.89;100.00
11413;BME280;5762;43.256;26.960;2023-02-11T11:15:24;101248.47;;;3.03;100.00
11413;BME280;5762;43.256;26.960;2023-02-11T11:20:57;101234.94;;;3.14;100.00
11413;BME280;5762;43.256;26.960;2023-02-11T11:23:16;101227.06;;;3.25;100.00
11413;BME280;5762;43.256;26.960;2023-02-11T11:25:45;101221.72;;;3.25;100.00
11413;BME280;5762;43.256;26.960;2023-02-11T11:28:24;101206.70;;;3.24;100.00
11413;BME280;5762;43.256;26.960;2023-02-11T11:30:53;101214.09;;;3.29;100.00
11413;BME280;5762;43.256;26.960;2023-02-11T11:33:26;101214.09;;;3.29;100.00
11413;BME280;5762;43.256;26.960;2023-02-11T11:36:03;101207.67;;;3.36;100.00
11413;BME280;5762;43.256;26.960;2023-02-11T11:38:23;101208.28;;;3.39;100.00
11413;BME280;5762;43.256;26.960;2023-02-11T11:43:38;101204.60;;;3.33;100.00
11413;BME280;5762;43.256;26.960;2023-02-11T11:46:06;101198.94;;;3.48;100.00
11413;BME280;5762;43.256;26.960;2023-02-11T11:48:37;101192.55;;;3.49;100.00
11413;BME280;5762;43.256;26.960;2023-02-11T11:51:10;101189.23;;;3.53;100.00
11413;BME280;5762;43.256;26.960;2023-02-11T11:53:50;101183.53;;;3.59;100.00
11413;BME280;5762;43.256;26.960;2023-02-11T11:56:21;101185.81;;;3.55;100.00
11413;BME280;5762;43.256;26.960;2023-02-11T11:58:49;101172.30;;;3.59;100.00
11413;BME280;5762;43.256;26.960;2023-02-11T12:04:09;101173.30;;;3.65;100.00
11413;BME280;5762;43.256;26.960;2023-02-11T12:15:01;101156.67;;;3.72;100.00
11413;BME280;5762;43.256;26.960;2023-02-11T12:17:34;101152.00;;;3.77;100.00
11413;BME280;5762;43.256;26.960;2023-02-11T12:20:11;101143.75;;;3.87;97.52
11413;BME280;5762;43.256;26.960;2023-02-11T12:25:24;101137.88;;;3.88;95.00
11413;BME280;5762;43.256;26.960;2023-02-11T12:36:08;101123.88;;;3.86;90.26
11413;BME280;5762;43.256;26.960;2023-02-11T12:38:39;101129.46;;;3.75;96.42
11413;BME280;5762;43.256;26.960;2023-02-11T12:41:13;101128.73;;;3.77;95.23
11413;BME280;5762;43.256;26.960;2023-02-11T12:43:38;101128.72;;;3.86;91.02
11413;BME280;5762;43.256;26.960;2023-02-11T12:56:28;101116.23;;;3.89;90.29
11413;BME280;5762;43.256;26.960;2023-02-11T12:58:53;101109.18;;;3.95;93.08
11413;BME280;5762;43.256;26.960;2023-02-11T13:01:25;101110.50;;;3.86;89.40
11413;BME280;5762;43.256;26.960;2023-02-11T13:06:27;101109.23;;;3.88;91.02
11413;BME280;5762;43.256;26.960;2023-02-11T13:08:56;101103.72;;;3.83;93.78
11413;BME280;5762;43.256;26.960;2023-02-11T13:11:25;101101.64;;;3.85;94.18
11413;BME280;5762;43.256;26.960;2023-02-11T13:13:57;101097.95;;;3.95;98.96
11413;BME280;5762;43.256;26.960;2023-02-11T13:16:37;101093.01;;;3.83;99.12
11413;BME280;5762;43.256;26.960;2023-02-11T13:19:14;101091.67;;;3.83;100.00
11413;BME280;5762;43.256;26.960;2023-02-11T13:26:53;101086.70;;;3.87;100.00
11413;BME280;5762;43.256;26.960;2023-02-11T13:29:25;101089.59;;;3.85;100.00
11413;BME280;5762;43.256;26.960;2023-02-11T13:32:04;101081.58;;;3.94;100.00
11413;BME280;5762;43.256;26.960;2023-02-11T13:34:23;101083.06;;;3.90;100.00
11413;BME280;5762;43.256;26.960;2023-02-11T13:36:57;101083.80;;;3.88;99.11
11413;BME280;5762;43.256;26.960;2023-02-11T13:39:22;101076.36;;;3.90;90.63
11413;BME280;5762;43.256;26.960;2023-02-11T13:41:51;101083.11;;;3.84;90.79
11413;BME280;5762;43.256;26.960;2023-02-11T13:44:21;101069.64;;;3.81;95.51
11413;BME280;5762;43.256;26.960;2023-02-11T13:49:37;101065.72;;;3.75;99.72
11413;BME280;5762;43.256;26.960;2023-02-11T13:52:03;101069.22;;;3.75;100.00
11413;BME280;5762;43.256;26.960;2023-02-11T13:54:34;101064.59;;;3.82;100.00
11413;BME280;5762;43.256;26.960;2023-02-11T13:59:54;101057.47;;;3.94;100.00
11413;BME280;5762;43.256;26.960;2023-02-11T14:02:28;101061.48;;;3.94;97.81
11413;BME280;5762;43.256;26.960;2023-02-11T14:05:30;101046.09;;;3.81;99.73
11413;BME280;5762;43.256;26.960;2023-02-11T14:13:36;101039.46;;;3.74;98.96
11413;BME280;5762;43.256;26.960;2023-02-11T14:16:15;101038.48;;;3.68;100.00
11413;BME280;5762;43.256;26.960;2023-02-11T14:21:18;101026.38;;;3.75;100.00
11413;BME280;5762;43.256;26.960;2023-02-11T14:23:46;101023.98;;;3.67;100.00
11413;BME280;5762;43.256;26.960;2023-02-11T14:28:51;101011.93;;;3.67;99.58
11413;BME280;5762;43.256;26.960;2023-02-11T14:31:20;101010.37;;;3.68;96.91
11413;BME280;5762;43.256;26.960;2023-02-11T14:33:58;101003.54;;;3.73;93.72
11413;BME280;5762;43.256;26.960;2023-02-11T14:41:58;101010.29;;;3.84;89.02
11413;BME280;5762;43.256;26.960;2023-02-11T14:44:29;101005.69;;;3.91;87.76
11413;BME280;5762;43.256;26.960;2023-02-11T14:46:57;101010.59;;;3.85;87.45